Time;durP1;ratioP1;P1;durP2;ratioP2;P2;SDS_P1;SDS_P2;PMS_P1;PMS_P2;Temp;Humidity;BMP_temperature;BMP_pressure;BME280_temperature;BME280_humidity;BME280_pressure;Samples;Min_cycle;Max_cycle;Signal;HPM_P1;HPM_P2
2021/12/24 00:01:12;;;;;;;8.38;4.60;;;;;;;19.91;19.72;96854.75;5014646;28;20026;-76
2021/12/24 00:03:38;;;;;;;7.30;4.53;;;;;;;19.80;20.06;96847.88;5014219;28;20409;-76
2021/12/24 00:06:06;;;;;;;8.88;4.90;;;;;;;20.44;19.41;96847.81;5014027;28;20054;-75
2021/12/24 00:08:33;;;;;;;9.45;4.40;;;;;;;21.17;18.72;96844.19;5014448;28;20036;-75
2021/12/24 00:11:01;;;;;;;6.75;3.97;;;;;;;21.29;18.54;96845.44;5008889;28;20033;-75
2021/12/24 00:13:30;;;;;;;9.02;4.60;;;;;;;21.06;18.97;96835.34;5010130;28;20044;-75
2021/12/24 00:16:21;;;;;;;8.85;4.80;;;;;;;20.86;19.19;96839.53;5007285;28;20044;-76
2021/12/24 00:19:01;;;;;;;11.25;4.55;;;;;;;21.49;18.72;96839.66;5014646;28;20061;-76
2021/12/24 00:35:29;;;;;;;7.80;4.75;;;;;;;19.39;20.75;96798.38;4994138;28;20057;-76
2021/12/24 00:37:56;;;;;;;8.15;3.85;;;;;;;20.58;19.34;96808.41;4993929;28;20027;-76
2021/12/24 00:40:22;;;;;;;9.40;5.80;;;;;;;18.96;20.94;96784.59;4993894;28;20062;-76
2021/12/24 00:42:51;;;;;;;8.38;4.55;;;;;;;19.96;20.12;96742.81;4994588;28;20039;-75
2021/12/24 00:45:20;;;;;;;9.57;4.72;;;;;;;18.47;21.61;96800.31;4994130;28;20035;-76
2021/12/24 00:47:48;;;;;;;8.32;4.03;;;;;;;19.65;20.31;96804.91;4993940;28;20474;-76
2021/12/24 00:50:19;;;;;;;8.52;4.90;;;;;;;20.04;20.00;96795.56;5013380;28;20034;-76
2021/12/24 00:52:56;;;;;;;6.65;4.70;;;;;;;20.54;19.29;96782.63;5013783;28;20470;-76
2021/12/24 00:55:26;;;;;;;7.55;4.20;;;;;;;20.24;19.37;96762.78;5013461;28;20046;-75
2021/12/24 00:57:55;;;;;;;7.93;4.20;;;;;;;19.81;19.93;96754.75;5013172;28;20041;-75
2021/12/24 01:04:15;;;;;;;8.13;4.43;;;;;;;19.76;20.54;96755.28;5004246;28;20133;-75
2021/12/24 01:06:41;;;;;;;6.50;3.45;;;;;;;20.72;19.26;96754.25;5011700;28;20054;-76
2021/12/24 01:09:07;;;;;;;6.70;4.30;;;;;;;20.31;19.65;96734.72;5012636;28;20026;-76
2021/12/24 01:11:33;;;;;;;5.53;3.80;;;;;;;20.10;19.88;96740.84;4997782;28;20113;-75
2021/12/24 01:13:59;;;;;;;7.70;4.38;;;;;;;19.40;20.55;96740.69;4994139;28;20038;-76
2021/12/24 01:16:41;;;;;;;8.77;4.07;;;;;;;20.08;20.01;96735.72;4993843;28;20061;-75
2021/12/24 01:19:13;;;;;;;8.52;4.50;;;;;;;20.96;19.08;96727.59;4993678;28;20566;-75
2021/12/24 01:25:00;;;;;;;6.72;4.28;;;;;;;20.05;20.10;96711.53;5011811;28;20040;-76
2021/12/24 01:38:20;;;;;;;9.48;3.40;;;;;;;20.57;20.15;96703.69;4993896;28;20458;-75
2021/12/24 01:43:23;;;;;;;5.40;3.42;;;;;;;19.78;21.21;96699.94;5013808;28;20470;-76
2021/12/24 01:45:51;;;;;;;6.15;3.42;;;;;;;19.99;20.86;96686.22;5012927;28;20556;-75
2021/12/24 01:48:18;;;;;;;5.43;3.28;;;;;;;20.35;20.59;96688.78;5013314;28;20045;-75
2021/12/24 01:50:47;;;;;;;6.03;3.60;;;;;;;20.31;20.70;96681.75;5013323;28;20092;-75
2021/12/24 01:53:15;;;;;;;4.45;3.10;;;;;;;20.31;20.83;96681.75;5013286;28;20113;-75
2021/12/24 01:55:42;;;;;;;5.00;3.58;;;;;;;20.19;20.72;96669.31;5014261;28;20478;-75
2021/12/24 01:58:09;;;;;;;4.30;3.10;;;;;;;20.65;20.36;96671.56;5013768;28;20034;-75
2021/12/24 02:00:40;;;;;;;5.57;3.92;;;;;;;20.81;20.07;96675.47;4996827;28;20037;-75
2021/12/24 02:03:08;;;;;;;5.65;3.22;;;;;;;20.80;20.07;96669.13;5003662;28;20028;-75
2021/12/24 02:05:35;;;;;;;7.60;4.60;;;;;;;20.04;21.06;96659.81;5014086;28;20111;-76
2021/12/24 02:08:02;;;;;;;6.38;4.43;;;;;;;19.98;21.02;96654.00;5015453;28;20383;-75
2021/12/24 02:10:29;;;;;;;5.30;3.17;;;;;;;20.44;20.72;96663.81;4999070;28;20045;-75
2021/12/24 02:12:56;;;;;;;4.93;3.15;;;;;;;20.29;21.00;96656.34;4997637;28;20034;-75
2021/12/24 02:18:39;;;;;;;5.65;3.10;;;;;;;19.57;21.95;96642.03;5017373;28;20070;-75
2021/12/24 02:29:17;;;;;;;4.30;3.17;;;;;;;20.50;21.06;96625.03;5015512;28;20463;-75
2021/12/24 02:31:43;;;;;;;4.15;3.13;;;;;;;19.88;21.75;96623.66;5016130;28;20083;-75
2021/12/24 02:34:09;;;;;;;7.35;3.70;;;;;;;19.80;21.84;96622.28;5015638;28;20553;-76
2021/12/24 02:36:36;;;;;;;4.65;3.33;;;;;;;20.20;21.16;96617.16;5016498;28;20034;-75
2021/12/24 02:39:03;;;;;;;5.13;3.70;;;;;;;19.66;22.09;96611.56;5016140;28;20034;-75
2021/12/24 02:41:29;;;;;;;4.95;3.15;;;;;;;19.25;22.33;96613.00;5016230;28;20026;-75
2021/12/24 02:43:56;;;;;;;6.65;3.47;;;;;;;20.38;21.02;96611.88;5015866;28;20041;-76
2021/12/24 02:54:08;;;;;;;4.45;3.08;;;;;;;20.67;20.58;96582.66;5002095;28;20406;-76
2021/12/24 02:56:37;;;;;;;5.05;3.38;;;;;;;20.79;20.53;96580.31;5014405;28;20504;-76
2021/12/24 02:59:06;;;;;;;3.03;2.67;;;;;;;19.86;21.44;96584.34;5014349;28;20037;-75
2021/12/24 03:01:36;;;;;;;4.22;3.03;;;;;;;20.56;20.65;96581.44;5015672;28;20121;-76
2021/12/24 03:04:04;;;;;;;3.50;2.97;;;;;;;21.10;20.11;96561.75;5015677;28;20030;-77
2021/12/24 03:06:34;;;;;;;4.85;2.92;;;;;;;20.55;20.56;96563.94;5015410;28;20060;-76
2021/12/24 03:09:01;;;;;;;4.75;3.47;;;;;;;19.91;21.41;96556.72;4998833;28;20027;-76
2021/12/24 03:11:27;;;;;;;5.80;3.75;;;;;;;19.68;21.68;96561.78;4995730;28;20037;-76
2021/12/24 03:13:54;;;;;;;5.65;3.33;;;;;;;20.27;21.25;96553.66;4995813;28;20122;-76
2021/12/24 03:16:21;;;;;;;4.25;3.20;;;;;;;20.18;21.04;96549.94;4996103;28;20034;-76
2021/12/24 03:18:48;;;;;;;5.13;3.47;;;;;;;19.62;21.99;96569.91;4995793;28;20037;-76
2021/12/24 03:21:23;;;;;;;4.50;3.25;;;;;;;19.01;22.54;96558.00;4999256;28;20026;-75
2021/12/24 03:26:35;;;;;;;5.55;3.63;;;;;;;19.72;21.75;96549.31;5015456;28;20370;-76
2021/12/24 03:29:04;;;;;;;4.45;3.25;;;;;;;20.22;20.99;96542.28;5015141;28;20031;-75
2021/12/24 03:31:30;;;;;;;5.32;3.53;;;;;;;19.50;21.91;96551.16;5015400;28;20029;-76
2021/12/24 03:33:57;;;;;;;4.97;3.20;;;;;;;20.23;21.07;96553.00;5014957;28;20482;-76
2021/12/24 03:36:24;;;;;;;4.97;3.17;;;;;;;20.44;20.61;96545.97;5015496;28;20038;-76
2021/12/24 03:38:52;;;;;;;3.67;2.80;;;;;;;19.59;21.53;96544.94;5015114;28;20049;-75
2021/12/24 03:41:18;;;;;;;3.80;2.80;;;;;;;20.44;20.83;96551.56;5014653;28;20034;-76
2021/12/24 03:43:44;;;;;;;3.78;3.03;;;;;;;20.01;20.91;96554.84;5014909;28;20032;-75
2021/12/24 03:46:14;;;;;;;4.70;3.33;;;;;;;20.31;20.84;96559.91;5014458;28;20038;-75
2021/12/24 03:48:55;;;;;;;4.47;3.38;;;;;;;20.21;21.01;96551.88;4995188;28;20026;-76
2021/12/24 03:56:38;;;;;;;6.15;3.35;;;;;;;21.01;20.05;96537.31;5014417;28;20457;-76
2021/12/24 03:59:05;;;;;;;4.63;3.13;;;;;;;21.44;19.48;96535.84;5014330;28;20041;-76
2021/12/24 04:01:32;;;;;;;3.38;2.67;;;;;;;21.95;19.17;96528.78;5014306;28;20482;-76
2021/12/24 04:03:58;;;;;;;5.38;3.88;;;;;;;21.96;18.89;96533.91;5014139;28;20038;-76
2021/12/24 04:06:24;;;;;;;4.57;3.28;;;;;;;21.38;19.76;96527.25;5007398;28;20044;-76
2021/12/24 04:08:50;;;;;;;4.22;3.05;;;;;;;21.50;19.54;96528.44;4995871;28;20437;-76
2021/12/24 04:11:16;;;;;;;4.70;3.28;;;;;;;22.14;18.85;96524.06;4994834;28;20026;-76
2021/12/24 04:13:43;;;;;;;3.22;2.58;;;;;;;22.25;18.58;96522.41;5009818;28;20033;-76
2021/12/24 04:16:09;;;;;;;4.03;2.88;;;;;;;22.18;18.64;96533.88;5014626;28;20033;-76
2021/12/24 04:18:44;;;;;;;4.35;3.05;;;;;;;21.87;18.99;96521.88;5013783;28;20182;-76
2021/12/24 04:26:39;;;;;;;4.13;2.90;;;;;;;21.32;19.85;96517.91;5014486;28;20073;-76
2021/12/24 04:29:07;;;;;;;4.65;3.28;;;;;;;21.15;19.91;96516.53;5014101;28;20030;-76
2021/12/24 04:31:44;;;;;;;5.35;4.00;;;;;;;20.53;20.30;96516.22;5013945;28;20497;-76
2021/12/24 04:34:12;;;;;;;3.90;2.88;;;;;;;20.96;20.16;96509.97;5013875;28;20041;-76
2021/12/24 04:39:37;;;;;;;3.72;2.95;;;;;;;20.92;20.10;96512.09;5014051;28;20125;-76
2021/12/24 05:03:40;;;;;;;4.75;2.97;;;;;;;21.82;19.82;96486.91;5014028;28;19967;-76
2021/12/24 05:08:57;;;;;;;5.22;2.35;;;;;;;20.63;21.09;96495.53;5013579;28;20042;-76
2021/12/24 05:11:24;;;;;;;5.22;2.90;;;;;;;20.53;21.25;96498.69;5013690;28;20115;-76
2021/12/24 05:13:53;;;;;;;3.33;2.60;;;;;;;20.58;21.26;96498.13;5013469;28;20109;-76
2021/12/24 05:24:00;;;;;;;3.72;2.45;;;;;;;21.94;20.02;96482.50;5013156;28;20050;-76
2021/12/24 05:26:27;;;;;;;2.55;1.90;;;;;;;22.29;19.54;96488.72;5013413;28;20062;-74
2021/12/24 05:28:53;;;;;;;3.30;2.00;;;;;;;22.34;19.26;96488.13;5013271;28;20072;-76
2021/12/24 05:31:20;;;;;;;2.92;2.00;;;;;;;22.91;18.85;96492.19;5015607;28;20034;-76
2021/12/24 05:33:46;;;;;;;4.18;2.45;;;;;;;22.85;18.88;96489.22;5017318;28;20472;-76
2021/12/24 05:36:12;;;;;;;4.00;2.28;;;;;;;23.05;18.56;96481.16;5011173;28;20038;-76
2021/12/24 05:38:38;;;;;;;2.33;1.70;;;;;;;22.95;18.89;96473.22;5017052;28;20042;-76
2021/12/24 05:41:05;;;;;;;2.88;2.42;;;;;;;22.77;19.01;96473.97;5016002;28;20034;-76
2021/12/24 05:43:31;;;;;;;3.65;2.30;;;;;;;22.33;19.33;96481.75;5017163;28;20077;-76
2021/12/24 05:45:57;;;;;;;2.45;1.52;;;;;;;23.08;18.80;96476.66;5016330;28;20119;-76
2021/12/24 05:48:23;;;;;;;2.60;1.75;;;;;;;23.41;18.34;96471.25;4997514;28;20038;-76
2021/12/24 05:50:49;;;;;;;2.72;1.98;;;;;;;22.76;19.00;96468.81;4997467;28;20032;-76
2021/12/24 05:53:16;;;;;;;3.58;2.10;;;;;;;23.06;18.81;96476.31;4997412;28;20069;-76
2021/12/24 05:55:42;;;;;;;3.00;1.70;;;;;;;23.23;18.74;96469.97;5012045;28;20030;-76
2021/12/24 05:58:08;;;;;;;2.50;1.88;;;;;;;23.37;18.67;96465.78;5016887;28;20033;-76
2021/12/24 06:00:38;;;;;;;2.33;1.58;;;;;;;23.17;18.86;96471.06;5017181;28;20034;-76
2021/12/24 06:03:06;;;;;;;3.35;2.05;;;;;;;23.15;18.84;96479.16;5014964;28;20048;-76
2021/12/24 06:05:33;;;;;;;2.92;2.08;;;;;;;23.14;18.72;96481.16;4997093;28;20112;-78
2021/12/24 06:07:59;;;;;;;2.85;1.90;;;;;;;23.40;18.78;96478.06;4996232;28;20393;-76
2021/12/24 06:10:25;;;;;;;2.10;1.50;;;;;;;23.49;18.52;96483.66;5010932;28;20375;-76
2021/12/24 06:12:51;;;;;;;2.03;1.83;;;;;;;23.33;18.87;96479.94;5012038;28;20030;-76
2021/12/24 06:15:23;;;;;;;2.10;1.60;;;;;;;23.41;18.65;96480.41;5015378;28;20038;-76
2021/12/24 06:17:51;;;;;;;2.20;1.50;;;;;;;23.64;18.51;96474.16;5015618;28;20030;-77
2021/12/24 06:20:18;;;;;;;2.13;1.70;;;;;;;23.40;18.59;96478.84;5015068;28;20034;-76
2021/12/24 06:22:44;;;;;;;3.67;1.65;;;;;;;23.39;18.72;96471.69;5015209;28;20030;-77
2021/12/24 06:25:10;;;;;;;2.25;1.58;;;;;;;23.31;19.01;96468.38;5015539;28;20030;-77
2021/12/24 06:27:37;;;;;;;3.45;1.90;;;;;;;22.99;19.36;96474.63;5015218;28;20083;-77
2021/12/24 06:30:05;;;;;;;2.05;1.70;;;;;;;23.07;19.50;96466.69;5009142;28;20041;-77
2021/12/24 06:32:32;;;;;;;4.70;2.45;;;;;;;23.09;19.54;96472.59;5014947;28;20413;-77
2021/12/24 06:34:58;;;;;;;4.18;2.78;;;;;;;23.17;19.40;96474.66;5011326;28;20034;-77
2021/12/24 06:37:25;;;;;;;2.03;1.88;;;;;;;23.01;19.58;96476.97;5015086;28;20026;-77
2021/12/24 06:39:52;;;;;;;5.82;3.47;;;;;;;22.90;19.98;96474.59;5015119;28;20034;-76
2021/12/24 06:42:18;;;;;;;6.18;4.05;;;;;;;23.18;19.47;96481.78;5004266;28;20164;-76
2021/12/24 06:44:44;;;;;;;5.22;4.03;;;;;;;23.03;19.75;96477.28;5013780;28;20371;-76
2021/12/24 06:47:10;;;;;;;4.28;3.00;;;;;;;23.64;19.22;96485.34;5014886;28;20398;-76
2021/12/24 06:49:36;;;;;;;5.75;3.17;;;;;;;23.86;19.01;96477.53;5014535;28;20045;-75
2021/12/24 06:52:03;;;;;;;3.58;2.50;;;;;;;23.66;19.14;96482.09;5014855;28;20057;-75
2021/12/24 06:54:31;;;;;;;4.38;2.55;;;;;;;23.34;19.56;96475.09;5014753;28;20489;-76
2021/12/24 06:56:58;;;;;;;3.45;2.28;;;;;;;23.64;19.22;96481.78;5014981;28;20056;-76
2021/12/24 06:59:24;;;;;;;4.30;2.72;;;;;;;23.27;19.60;96481.00;5013400;28;20041;-76
2021/12/24 07:01:50;;;;;;;3.53;2.58;;;;;;;23.00;19.96;96489.41;5012814;28;20027;-75
2021/12/24 07:04:16;;;;;;;3.83;2.38;;;;;;;23.41;19.69;96485.25;5013736;28;20053;-76
2021/12/24 07:06:45;;;;;;;2.10;1.70;;;;;;;23.88;19.38;96486.25;4979221;28;1032393;-76
2021/12/24 07:09:15;;;;;;;3.10;2.38;;;;;;;24.09;19.03;96480.91;5015545;28;20075;-76
2021/12/24 07:11:42;;;;;;;5.00;2.70;;;;;;;23.41;19.98;96483.19;5015579;28;20030;-76
2021/12/24 07:14:08;;;;;;;2.42;1.60;;;;;;;23.45;19.73;96486.63;5015829;28;20042;-76
2021/12/24 07:16:35;;;;;;;5.15;2.05;;;;;;;23.52;19.70;96491.94;5015498;28;20034;-76
2021/12/24 07:19:02;;;;;;;3.15;1.88;;;;;;;23.12;20.18;96496.88;5015097;28;20026;-77
2021/12/24 07:21:28;;;;;;;1.70;1.40;;;;;;;22.89;20.54;96489.06;5015537;28;20037;-76
2021/12/24 07:23:54;;;;;;;2.13;1.67;;;;;;;22.64;20.95;96495.69;5007137;28;20033;-76
2021/12/24 07:26:21;;;;;;;4.45;2.40;;;;;;;23.23;20.40;96485.97;4996089;28;20372;-76
2021/12/24 07:28:47;;;;;;;7.78;3.25;;;;;;;23.78;19.57;96489.56;4999784;28;20522;-76
2021/12/24 07:31:14;;;;;;;10.85;4.85;;;;;;;23.02;20.35;96478.50;5015229;28;20038;-76
2021/12/24 07:33:40;;;;;;;9.38;4.53;;;;;;;23.55;20.02;96479.75;5013208;28;20029;-77
2021/12/24 07:36:06;;;;;;;5.55;2.28;;;;;;;23.06;20.53;96471.50;5012900;28;20034;-77
2021/12/24 07:38:32;;;;;;;6.93;2.97;;;;;;;23.29;20.17;96481.34;5010792;28;20074;-78
2021/12/24 07:40:59;;;;;;;4.53;2.45;;;;;;;23.09;20.54;96476.19;5015026;28;20034;-77
2021/12/24 07:43:25;;;;;;;3.03;2.22;;;;;;;22.64;20.88;96485.28;5015232;28;20588;-76
2021/12/24 07:45:52;;;;;;;4.15;1.80;;;;;;;23.29;20.30;96481.34;5014873;28;20034;-76
2021/12/24 07:48:26;;;;;;;4.28;2.50;;;;;;;22.83;20.78;96477.72;4995167;28;20394;-76
2021/12/24 07:53:19;;;;;;;4.55;2.40;;;;;;;22.68;21.02;96485.16;4998535;28;20034;-76
2021/12/24 07:55:46;;;;;;;5.60;2.80;;;;;;;21.97;21.65;96476.78;5014832;28;20122;-76
2021/12/24 07:58:14;;;;;;;3.97;2.45;;;;;;;22.95;20.70;96470.41;5014896;28;20493;-76
2021/12/24 08:00:41;;;;;;;4.28;2.88;;;;;;;23.35;20.43;96462.69;5010677;28;20053;-76
2021/12/24 08:03:08;;;;;;;4.78;2.33;;;;;;;23.79;19.75;96463.06;4994883;28;20045;-76
2021/12/24 08:05:39;;;;;;;4.88;2.30;;;;;;;23.54;20.03;96463.44;4994773;28;20043;-77
2021/12/24 08:08:06;;;;;;;;;;;;;;;23.01;20.41;96476.97;4995670;28;20398;-76
2021/12/24 08:10:33;;;;;;;4.00;2.25;;;;;;;22.84;20.94;96479.28;5000675;28;19913;-76
2021/12/24 08:13:00;;;;;;;3.17;1.80;;;;;;;22.58;21.24;96475.16;5014543;28;20117;-76
2021/12/24 08:15:26;;;;;;;3.08;2.40;;;;;;;21.99;21.83;96474.31;5014504;28;20026;-76
2021/12/24 08:17:53;;;;;;;3.78;2.30;;;;;;;22.60;21.12;96462.28;5009947;28;20077;-76
2021/12/24 08:20:23;;;;;;;2.83;1.83;;;;;;;22.15;21.87;96469.72;5000544;28;20117;-76
2021/12/24 08:22:51;;;;;;;3.75;1.90;;;;;;;22.89;21.08;96469.50;4994648;28;20121;-76
2021/12/24 08:25:18;;;;;;;4.82;2.90;;;;;;;23.11;20.81;96458.91;5013653;28;20022;-76
2021/12/24 08:27:45;;;;;;;2.13;1.50;;;;;;;23.53;20.32;96464.66;5014239;28;20046;-76
2021/12/24 08:30:11;;;;;;;3.42;1.85;;;;;;;23.79;19.95;96457.47;5013654;28;20481;-76
2021/12/24 08:32:40;;;;;;;3.45;1.75;;;;;;;23.30;20.29;96464.06;5014055;28;20034;-76
2021/12/24 08:35:15;;;;;;;2.40;1.50;;;;;;;23.65;20.25;96472.13;5014190;28;20029;-77
2021/12/24 08:37:41;;;;;;;2.70;2.00;;;;;;;23.11;20.70;96470.09;5014144;28;20038;-76
2021/12/24 08:40:09;;;;;;;1.90;1.08;;;;;;;23.16;20.50;96459.06;5014269;28;20029;-76
2021/12/24 08:42:36;;;;;;;3.25;1.95;;;;;;;22.71;21.15;96459.03;5013985;28;20034;-76
2021/12/24 08:45:02;;;;;;;3.55;1.85;;;;;;;22.73;21.31;96448.19;5013458;28;20481;-76
2021/12/24 08:47:28;;;;;;;2.35;1.70;;;;;;;23.14;20.81;96444.00;5013776;28;20441;-76
2021/12/24 08:49:54;;;;;;;2.58;1.65;;;;;;;22.97;21.05;96457.50;5014113;28;20109;-76
2021/12/24 08:52:20;;;;;;;3.28;2.13;;;;;;;22.83;21.21;96454.53;5013793;28;20056;-75
2021/12/24 08:54:46;;;;;;;2.78;1.67;;;;;;;22.71;21.27;96442.25;5013970;28;20115;-76
2021/12/24 08:57:12;;;;;;;2.65;1.58;;;;;;;23.43;20.57;96449.94;5013687;28;20030;-75
2021/12/24 08:59:39;;;;;;;1.48;1.38;;;;;;;23.79;20.16;96457.47;5008405;28;20068;-76
2021/12/24 09:02:05;;;;;;;2.25;1.45;;;;;;;23.45;20.50;96455.84;5004069;28;20045;-76
2021/12/24 09:04:31;;;;;;;2.60;1.75;;;;;;;23.41;20.36;96455.19;5013309;28;20033;-76
2021/12/24 09:06:57;;;;;;;2.47;1.65;;;;;;;23.88;20.15;96452.59;5013542;28;20456;-76
2021/12/24 09:09:23;;;;;;;3.03;1.73;;;;;;;23.70;20.27;96435.84;5013558;28;20033;-76
2021/12/24 09:11:49;;;;;;;3.92;1.80;;;;;;;23.95;20.05;96438.25;5007705;28;20038;-76
2021/12/24 09:14:18;;;;;;;4.60;2.72;;;;;;;24.24;19.69;96440.53;5013468;28;20042;-76
2021/12/24 09:16:45;;;;;;;2.42;1.85;;;;;;;24.34;19.86;96433.59;5013781;28;20056;-76
2021/12/24 09:19:15;;;;;;;3.38;1.75;;;;;;;24.06;20.16;96429.38;5006771;28;20112;-76
2021/12/24 09:21:42;;;;;;;2.30;1.50;;;;;;;23.61;20.45;96441.47;5013357;28;20029;-76
2021/12/24 09:24:09;;;;;;;2.25;1.65;;;;;;;23.55;20.82;96423.72;5013360;28;20038;-75
2021/12/24 09:26:39;;;;;;;2.35;1.40;;;;;;;23.99;20.11;96426.88;5008123;28;20026;-76
2021/12/24 09:29:07;;;;;;;5.07;2.07;;;;;;;23.61;20.57;96430.28;4993964;28;20031;-76
2021/12/24 09:31:34;;;;;;;2.15;1.45;;;;;;;24.27;19.98;96419.91;4992584;28;20064;-75
2021/12/24 09:34:00;;;;;;;2.67;1.52;;;;;;;24.00;20.21;96414.41;4993941;28;20382;-75
2021/12/24 09:36:28;;;;;;;2.08;1.50;;;;;;;24.31;20.07;96400.13;5006569;28;20038;-75
2021/12/24 09:39:01;;;;;;;3.67;1.55;;;;;;;24.74;19.71;96402.31;5012742;28;20362;-75
2021/12/24 09:41:27;;;;;;;2.95;2.15;;;;;;;24.02;20.35;96404.28;5013939;28;20025;-75
2021/12/24 09:43:56;;;;;;;1.83;1.30;;;;;;;24.00;20.56;96401.19;5028224;28;20092;-75
2021/12/24 09:46:22;;;;;;;1.95;1.45;;;;;;;24.35;20.30;96404.31;5013381;28;20117;-75
2021/12/24 09:48:48;;;;;;;4.10;1.95;;;;;;;24.52;20.11;96402.66;5013341;28;20104;-75
2021/12/24 09:51:15;;;;;;;6.38;1.83;;;;;;;24.58;19.80;96400.72;5013236;28;20033;-75
2021/12/24 09:53:41;;;;;;;2.15;1.35;;;;;;;24.45;19.78;96400.19;5013144;28;20045;-75
2021/12/24 09:56:07;;;;;;;2.78;1.65;;;;;;;24.98;19.50;96394.69;5013634;28;20390;-75
2021/12/24 09:58:35;;;;;;;18.33;6.13;;;;;;;24.95;19.49;96395.66;5006005;28;20026;-75
2021/12/24 10:01:01;;;;;;;16.58;5.93;;;;;;;25.19;19.34;96384.38;4993733;28;20030;-75
2021/12/24 10:03:33;;;;;;;19.60;6.22;;;;;;;25.01;19.47;96390.16;5000560;28;20037;-76
2021/12/24 10:06:00;;;;;;;9.60;3.97;;;;;;;24.43;19.80;96387.91;5008849;28;20414;-76
2021/12/24 10:08:28;;;;;;;8.98;3.65;;;;;;;24.46;19.99;96390.50;5012982;28;20038;-76
2021/12/24 10:11:07;;;;;;;8.93;3.10;;;;;;;24.73;19.83;96392.38;5012675;28;20026;-76
2021/12/24 10:13:36;;;;;;;9.65;3.17;;;;;;;25.10;19.56;96390.84;5011848;28;20121;-76
2021/12/24 10:16:08;;;;;;;9.60;4.00;;;;;;;25.13;19.56;96384.28;5013060;28;20113;-75
2021/12/24 10:18:44;;;;;;;5.65;2.38;;;;;;;24.89;19.76;96389.16;5016653;28;20065;-75
2021/12/24 10:21:22;;;;;;;5.93;2.50;;;;;;;24.19;20.24;96389.91;5016715;28;20394;-75
2021/12/24 10:24:04;;;;;;;11.73;4.40;;;;;;;23.74;21.00;96386.00;5016500;28;20168;-76
2021/12/24 10:26:35;;;;;;;7.30;3.35;;;;;;;24.24;20.61;96373.22;5015849;28;20030;-75
2021/12/24 10:29:11;;;;;;;9.38;3.97;;;;;;;24.75;20.14;96375.81;5016408;28;20022;-76
2021/12/24 10:31:43;;;;;;;19.52;7.57;;;;;;;25.04;19.91;96366.72;5016417;28;20559;-76
2021/12/24 10:34:39;;;;;;;13.70;6.32;;;;;;;25.27;19.69;96363.06;5016117;28;20511;-76
2021/12/24 10:37:08;;;;;;;7.05;3.83;;;;;;;24.99;19.71;96359.75;5016332;28;20034;-76
2021/12/24 10:39:42;;;;;;;9.77;4.30;;;;;;;25.29;19.46;96350.09;5016580;28;20033;-76
2021/12/24 10:42:12;;;;;;;5.75;3.05;;;;;;;25.11;19.74;96352.31;5031407;28;20137;-76
2021/12/24 10:44:40;;;;;;;7.03;3.30;;;;;;;24.97;19.98;96353.06;5015811;28;20050;-76
2021/12/24 10:47:15;;;;;;;9.20;4.43;;;;;;;25.32;19.71;96360.34;5016011;28;20026;-75
2021/12/24 10:50:04;;;;;;;5.47;2.83;;;;;;;24.78;20.08;96348.84;5016335;28;20026;-75
2021/12/24 10:55:32;;;;;;;5.72;3.10;;;;;;;24.64;20.35;96337.06;5015685;28;20187;-75
2021/12/24 10:57:59;;;;;;;5.22;2.78;;;;;;;24.88;20.33;96345.47;5004963;28;20026;-75
2021/12/24 11:00:39;;;;;;;9.73;4.80;;;;;;;25.40;19.71;96333.44;5005358;28;20041;-75
2021/12/24 11:03:08;;;;;;;5.90;3.40;;;;;;;25.36;19.57;96337.69;5020506;28;20037;-75
2021/12/24 11:05:41;;;;;;;7.05;3.65;;;;;;;24.42;20.52;96324.63;5012814;28;20045;-76
2021/12/24 11:08:14;;;;;;;5.28;3.22;;;;;;;24.49;20.63;96327.84;5012542;28;20049;-75
2021/12/24 11:10:43;;;;;;;11.25;4.85;;;;;;;23.67;21.57;96321.13;5014124;28;20030;-75
2021/12/24 11:13:14;;;;;;;6.47;3.80;;;;;;;24.00;21.22;96330.31;5015769;28;20034;-74
2021/12/24 11:15:47;;;;;;;7.25;4.18;;;;;;;23.68;21.56;96351.50;5015836;28;20034;-75
2021/12/24 11:18:19;;;;;;;8.38;3.42;;;;;;;24.27;20.85;96355.41;5015333;28;20030;-75
2021/12/24 11:21:05;;;;;;;6.00;3.05;;;;;;;24.51;20.61;96355.41;5015278;28;20478;-75
2021/12/24 11:23:34;;;;;;;6.93;3.75;;;;;;;24.80;20.50;96351.97;5015397;28;20509;-75
2021/12/24 11:26:07;;;;;;;5.50;2.50;;;;;;;25.12;20.29;96332.16;5015091;28;20109;-75
2021/12/24 11:28:35;;;;;;;5.75;3.13;;;;;;;25.59;19.45;96307.94;5006843;28;20034;-75
2021/12/24 11:31:04;;;;;;;5.82;2.60;;;;;;;25.04;20.32;96304.94;4995883;28;20034;-75
2021/12/24 11:33:33;;;;;;;5.82;2.90;;;;;;;25.15;20.30;96296.72;4995877;28;20030;-75
2021/12/24 11:36:03;;;;;;;10.07;4.28;;;;;;;25.46;19.85;96294.22;5013262;28;20046;-75
2021/12/24 11:38:32;;;;;;;5.23;3.10;;;;;;;25.90;19.66;96297.72;5015497;28;20124;-75
2021/12/24 11:41:01;;;;;;;5.93;2.78;;;;;;;25.90;19.63;96296.94;5014876;28;20363;-75
2021/12/24 11:43:31;;;;;;;4.85;2.60;;;;;;;25.77;19.89;96299.28;5015076;28;20084;-75
2021/12/24 11:46:03;;;;;;;5.07;3.35;;;;;;;24.80;20.89;96290.97;5015027;28;20038;-75
2021/12/24 11:48:33;;;;;;;6.60;3.53;;;;;;;25.52;19.85;96297.09;5014970;28;20089;-75
2021/12/24 11:51:30;;;;;;;4.22;2.42;;;;;;;24.77;20.69;96299.56;5014732;28;20438;-75
2021/12/24 11:54:03;;;;;;;5.57;2.53;;;;;;;25.06;20.64;96300.41;5009668;28;20437;-75
2021/12/24 11:56:38;;;;;;;3.65;2.08;;;;;;;24.85;20.84;96297.97;5010094;28;20449;-75
2021/12/24 11:59:05;;;;;;;5.53;2.45;;;;;;;24.35;21.38;96296.94;4995465;28;20081;-75
2021/12/24 12:01:38;;;;;;;5.28;2.53;;;;;;;24.12;21.84;96297.72;4996812;28;20031;-75
2021/12/24 12:04:13;;;;;;;5.88;2.83;;;;;;;24.36;21.51;96312.53;5009872;28;20026;-75
2021/12/24 12:06:39;;;;;;;4.15;2.65;;;;;;;23.94;22.06;96307.00;5014564;28;20456;-75
2021/12/24 12:09:10;;;;;;;3.47;2.03;;;;;;;24.28;21.86;96309.28;5014177;28;20137;-75
2021/12/24 12:11:39;;;;;;;4.78;2.88;;;;;;;24.39;21.43;96300.31;5014413;28;20026;-75
2021/12/24 12:14:10;;;;;;;5.30;2.13;;;;;;;24.63;21.26;96296.25;5014737;28;20363;-75
2021/12/24 12:16:50;;;;;;;5.63;2.85;;;;;;;24.68;21.13;96294.78;5014538;28;20030;-75
2021/12/24 12:22:22;;;;;;;3.53;1.83;;;;;;;24.42;21.40;96286.13;5014832;28;20073;-75
2021/12/24 12:27:26;;;;;;;3.85;2.13;;;;;;;24.62;21.40;96274.28;5014451;28;19913;-75
2021/12/24 12:29:52;;;;;;;3.35;1.95;;;;;;;24.28;21.64;96274.84;5014093;28;20042;-75
2021/12/24 12:32:18;;;;;;;1.90;1.60;;;;;;;23.85;22.08;96270.59;5014511;28;20421;-75
2021/12/24 12:34:44;;;;;;;5.25;2.58;;;;;;;24.83;21.07;96266.78;5014430;28;20092;-75
2021/12/24 12:37:14;;;;;;;4.10;2.10;;;;;;;25.21;20.63;96278.69;5013829;28;20498;-75
2021/12/24 12:39:41;;;;;;;3.75;2.25;;;;;;;24.89;21.01;96290.91;5014080;28;20034;-75
2021/12/24 12:42:08;;;;;;;2.60;1.48;;;;;;;25.28;20.50;96281.13;5013912;28;20110;-75
2021/12/24 12:44:37;;;;;;;7.40;3.72;;;;;;;24.51;21.43;96286.06;5013829;28;20037;-75
2021/12/24 12:47:22;;;;;;;6.60;3.30;;;;;;;24.50;21.43;96286.53;5012677;28;20022;-75
2021/12/24 12:49:51;;;;;;;6.25;3.15;;;;;;;25.14;20.98;96278.31;5005304;28;20033;-75
2021/12/24 12:52:27;;;;;;;6.78;3.80;;;;;;;25.64;20.25;96285.56;4994681;28;20038;-75
2021/12/24 12:54:58;;;;;;;5.28;3.55;;;;;;;25.81;19.95;96291.44;4998320;28;20095;-75
2021/12/24 12:57:28;;;;;;;;;;;;;;;25.58;19.96;96283.94;5014390;28;20040;-75
2021/12/24 13:00:18;;;;;;;7.38;4.28;;;;;;;25.46;20.37;96290.63;5012803;28;19914;-75
2021/12/24 13:02:57;;;;;;;10.40;5.13;;;;;;;25.91;20.04;96293.63;5012552;28;20026;-75
2021/12/24 13:05:25;;;;;;;10.18;4.20;;;;;;;25.38;20.59;96293.81;5012470;28;20390;-75
2021/12/24 13:07:51;;;;;;;5.28;3.05;;;;;;;25.83;20.08;96297.34;5012808;28;20050;-75
2021/12/24 13:10:18;;;;;;;6.28;3.40;;;;;;;25.65;20.06;96294.78;5013660;28;20045;-75
2021/12/24 13:12:44;;;;;;;7.07;3.47;;;;;;;24.65;21.49;96295.75;5013557;28;20111;-75
2021/12/24 13:15:16;;;;;;;4.72;2.60;;;;;;;25.57;20.27;96308.44;5013671;28;20112;-75
2021/12/24 13:17:48;;;;;;;12.90;6.43;;;;;;;25.40;20.73;96307.38;5013579;28;20095;-75
2021/12/24 13:20:31;;;;;;;5.97;3.45;;;;;;;25.60;20.33;96317.94;5013409;28;20034;-75
2021/12/24 13:22:57;;;;;;;14.32;7.80;;;;;;;25.84;19.83;96318.56;5013866;28;20045;-75
2021/12/24 13:25:24;;;;;;;9.80;5.85;;;;;;;25.59;20.32;96327.63;5013528;28;20374;-75
2021/12/24 13:27:54;;;;;;;10.63;6.32;;;;;;;24.76;21.47;96312.03;5013748;28;20033;-75
2021/12/24 13:30:22;;;;;;;9.20;5.25;;;;;;;24.50;21.59;96315.38;5013421;28;20434;-75
2021/12/24 13:32:57;;;;;;;12.00;6.32;;;;;;;25.15;21.19;96316.38;5013459;28;20029;-75
2021/12/24 13:35:26;;;;;;;27.15;14.27;;;;;;;24.44;21.96;96306.06;5001551;28;20049;-76